sensor_id;sensor_type;location;lat;lon;timestamp;temperature;humidity
21801;DHT22;11062;51.164;16.924;2022-07-25T00:00:07;36.40;38.50
21801;DHT22;11062;51.164;16.924;2022-07-25T00:02:36;36.20;38.60
21801;DHT22;11062;51.164;16.924;2022-07-25T00:05:03;36.10;38.80
21801;DHT22;11062;51.164;16.924;2022-07-25T00:07:29;35.90;38.80
21801;DHT22;11062;51.164;16.924;2022-07-25T00:09:55;35.90;39.10
21801;DHT22;11062;51.164;16.924;2022-07-25T00:12:21;35.80;39.70
21801;DHT22;11062;51.164;16.924;2022-07-25T00:14:47;35.60;39.40
21801;DHT22;11062;51.164;16.924;2022-07-25T00:17:13;35.20;39.70
21801;DHT22;11062;51.164;16.924;2022-07-25T00:19:40;35.00;40.10
21801;DHT22;11062;51.164;16.924;2022-07-25T00:22:08;34.70;40.40
21801;DHT22;11062;51.164;16.924;2022-07-25T00:24:34;34.70;40.50
21801;DHT22;11062;51.164;16.924;2022-07-25T00:27:00;34.70;40.30
21801;DHT22;11062;51.164;16.924;2022-07-25T00:29:27;34.30;40.20
21801;DHT22;11062;51.164;16.924;2022-07-25T00:31:54;34.50;40.40
21801;DHT22;11062;51.164;16.924;2022-07-25T00:34:20;34.70;40.10
21801;DHT22;11062;51.164;16.924;2022-07-25T00:36:46;34.90;40.00
21801;DHT22;11062;51.164;16.924;2022-07-25T00:39:12;34.90;39.80
21801;DHT22;11062;51.164;16.924;2022-07-25T00:41:41;34.90;39.90
21801;DHT22;11062;51.164;16.924;2022-07-25T00:44:09;34.90;39.90
21801;DHT22;11062;51.164;16.924;2022-07-25T00:46:37;34.90;40.10
21801;DHT22;11062;51.164;16.924;2022-07-25T00:49:03;34.80;40.30
21801;DHT22;11062;51.164;16.924;2022-07-25T00:51:30;34.80;40.30
21801;DHT22;11062;51.164;16.924;2022-07-25T00:53:56;34.70;40.20
21801;DHT22;11062;51.164;16.924;2022-07-25T00:56:23;34.50;40.30
21801;DHT22;11062;51.164;16.924;2022-07-25T00:58:49;34.60;40.50
21801;DHT22;11062;51.164;16.924;2022-07-25T01:01:15;34.70;40.60
21801;DHT22;11062;51.164;16.924;2022-07-25T01:03:44;34.70;40.50
21801;DHT22;11062;51.164;16.924;2022-07-25T01:06:11;34.70;40.10
21801;DHT22;11062;51.164;16.924;2022-07-25T01:08:37;34.70;39.90
21801;DHT22;11062;51.164;16.924;2022-07-25T01:11:03;34.60;40.00
21801;DHT22;11062;51.164;16.924;2022-07-25T01:13:32;34.60;40.00
21801;DHT22;11062;51.164;16.924;2022-07-25T01:15:58;34.50;39.90
21801;DHT22;11062;51.164;16.924;2022-07-25T01:18:24;34.50;39.90
21801;DHT22;11062;51.164;16.924;2022-07-25T01:20:50;34.40;40.10
21801;DHT22;11062;51.164;16.924;2022-07-25T01:23:16;34.40;40.10
21801;DHT22;11062;51.164;16.924;2022-07-25T01:25:45;34.40;40.20
21801;DHT22;11062;51.164;16.924;2022-07-25T01:28:11;34.20;40.30
21801;DHT22;11062;51.164;16.924;2022-07-25T01:30:40;34.40;40.40
21801;DHT22;11062;51.164;16.924;2022-07-25T01:33:06;34.60;39.90
21801;DHT22;11062;51.164;16.924;2022-07-25T01:35:35;34.70;39.80
21801;DHT22;11062;51.164;16.924;2022-07-25T01:38:01;34.80;39.60
21801;DHT22;11062;51.164;16.924;2022-07-25T01:40:27;34.80;39.50
21801;DHT22;11062;51.164;16.924;2022-07-25T01:42:53;34.80;39.30
21801;DHT22;11062;51.164;16.924;2022-07-25T01:45:19;34.90;39.40
21801;DHT22;11062;51.164;16.924;2022-07-25T01:47:45;34.80;39.60
21801;DHT22;11062;51.164;16.924;2022-07-25T01:50:11;34.80;39.40
21801;DHT22;11062;51.164;16.924;2022-07-25T01:52:37;34.80;39.60
21801;DHT22;11062;51.164;16.924;2022-07-25T01:55:07;34.80;39.50
21801;DHT22;11062;51.164;16.924;2022-07-25T01:57:34;34.60;39.30
21801;DHT22;11062;51.164;16.924;2022-07-25T02:00:00;34.50;39.40
21801;DHT22;11062;51.164;16.924;2022-07-25T02:02:26;34.60;39.30
21801;DHT22;11062;51.164;16.924;2022-07-25T02:04:53;34.80;39.10
21801;DHT22;11062;51.164;16.924;2022-07-25T02:07:20;34.90;38.90
21801;DHT22;11062;51.164;16.924;2022-07-25T02:09:46;35.00;38.70
21801;DHT22;11062;51.164;16.924;2022-07-25T02:12:13;35.00;38.70
21801;DHT22;11062;51.164;16.924;2022-07-25T02:14:39;35.00;38.60
21801;DHT22;11062;51.164;16.924;2022-07-25T02:17:05;35.00;38.70
21801;DHT22;11062;51.164;16.924;2022-07-25T02:19:33;35.00;38.80
21801;DHT22;11062;51.164;16.924;2022-07-25T02:21:59;35.00;39.00
21801;DHT22;11062;51.164;16.924;2022-07-25T02:24:34;34.90;39.00
21801;DHT22;11062;51.164;16.924;2022-07-25T02:27:02;34.90;38.90
21801;DHT22;11062;51.164;16.924;2022-07-25T02:29:29;34.70;38.80
21801;DHT22;11062;51.164;16.924;2022-07-25T02:31:57;34.70;39.00
21801;DHT22;11062;51.164;16.924;2022-07-25T02:34:23;34.70;38.90
21801;DHT22;11062;51.164;16.924;2022-07-25T02:36:50;34.70;38.90
21801;DHT22;11062;51.164;16.924;2022-07-25T02:39:19;34.50;39.00
21801;DHT22;11062;51.164;16.924;2022-07-25T02:41:45;34.50;38.80
21801;DHT22;11062;51.164;16.924;2022-07-25T02:44:12;34.50;39.10
21801;DHT22;11062;51.164;16.924;2022-07-25T02:46:39;34.30;39.00
21801;DHT22;11062;51.164;16.924;2022-07-25T02:49:04;34.40;39.20
21801;DHT22;11062;51.164;16.924;2022-07-25T02:51:30;34.40;39.20
21801;DHT22;11062;51.164;16.924;2022-07-25T02:53:56;34.50;39.40
21801;DHT22;11062;51.164;16.924;2022-07-25T02:56:22;34.10;39.30
21801;DHT22;11062;51.164;16.924;2022-07-25T02:58:48;34.30;39.60
21801;DHT22;11062;51.164;16.924;2022-07-25T03:01:14;34.20;39.50
21801;DHT22;11062;51.164;16.924;2022-07-25T03:03:40;34.20;39.50
21801;DHT22;11062;51.164;16.924;2022-07-25T03:06:06;34.20;39.60
21801;DHT22;11062;51.164;16.924;2022-07-25T03:08:32;34.20;39.60
21801;DHT22;11062;51.164;16.924;2022-07-25T03:10:58;34.30;39.30
21801;DHT22;11062;51.164;16.924;2022-07-25T03:13:24;34.40;39.30
21801;DHT22;11062;51.164;16.924;2022-07-25T03:15:50;34.50;39.40
21801;DHT22;11062;51.164;16.924;2022-07-25T03:18:16;34.50;39.40
21801;DHT22;11062;51.164;16.924;2022-07-25T03:20:42;34.50;39.50
21801;DHT22;11062;51.164;16.924;2022-07-25T03:23:07;34.50;39.60
21801;DHT22;11062;51.164;16.924;2022-07-25T03:25:33;34.50;39.50
21801;DHT22;11062;51.164;16.924;2022-07-25T03:27:59;34.50;39.60
21801;DHT22;11062;51.164;16.924;2022-07-25T03:30:25;34.50;39.60
21801;DHT22;11062;51.164;16.924;2022-07-25T03:32:51;34.50;39.60
21801;DHT22;11062;51.164;16.924;2022-07-25T03:35:17;34.50;39.30
21801;DHT22;11062;51.164;16.924;2022-07-25T03:37:43;34.50;39.30
21801;DHT22;11062;51.164;16.924;2022-07-25T03:40:10;34.50;39.40
21801;DHT22;11062;51.164;16.924;2022-07-25T03:42:36;34.50;39.60
21801;DHT22;11062;51.164;16.924;2022-07-25T03:45:03;34.40;39.70
21801;DHT22;11062;51.164;16.924;2022-07-25T03:47:29;34.30;39.90
21801;DHT22;11062;51.164;16.924;2022-07-25T03:49:55;34.30;40.20
21801;DHT22;11062;51.164;16.924;2022-07-25T03:52:22;34.20;40.10
21801;DHT22;11062;51.164;16.924;2022-07-25T03:54:48;34.20;40.20
21801;DHT22;11062;51.164;16.924;2022-07-25T03:57:14;34.20;40.40
21801;DHT22;11062;51.164;16.924;2022-07-25T03:59:40;34.30;40.40
21801;DHT22;11062;51.164;16.924;2022-07-25T04:02:06;34.20;40.60
21801;DHT22;11062;51.164;16.924;2022-07-25T04:04:32;34.30;40.50
21801;DHT22;11062;51.164;16.924;2022-07-25T04:06:58;34.30;40.60
21801;DHT22;11062;51.164;16.924;2022-07-25T04:09:24;34.10;40.70
21801;DHT22;11062;51.164;16.924;2022-07-25T04:11:50;34.40;40.70
21801;DHT22;11062;51.164;16.924;2022-07-25T04:14:16;34.40;40.70
21801;DHT22;11062;51.164;16.924;2022-07-25T04:16:42;34.50;40.80
21801;DHT22;11062;51.164;16.924;2022-07-25T04:19:08;34.30;40.80
21801;DHT22;11062;51.164;16.924;2022-07-25T04:21:34;34.30;40.90
21801;DHT22;11062;51.164;16.924;2022-07-25T04:24:04;34.40;40.90
21801;DHT22;11062;51.164;16.924;2022-07-25T04:26:33;34.50;40.90
21801;DHT22;11062;51.164;16.924;2022-07-25T04:28:59;34.70;40.70
21801;DHT22;11062;51.164;16.924;2022-07-25T04:31:28;34.80;40.50
21801;DHT22;11062;51.164;16.924;2022-07-25T04:34:16;34.90;40.40
21801;DHT22;11062;51.164;16.924;2022-07-25T04:36:45;34.80;40.30
21801;DHT22;11062;51.164;16.924;2022-07-25T04:39:15;35.00;40.40
21801;DHT22;11062;51.164;16.924;2022-07-25T04:41:56;35.00;40.70
21801;DHT22;11062;51.164;16.924;2022-07-25T04:44:45;35.00;40.50
21801;DHT22;11062;51.164;16.924;2022-07-25T04:47:17;35.00;40.70
21801;DHT22;11062;51.164;16.924;2022-07-25T04:49:49;35.00;40.70
21801;DHT22;11062;51.164;16.924;2022-07-25T04:52:38;35.00;40.80
21801;DHT22;11062;51.164;16.924;2022-07-25T04:55:48;35.00;40.90
21801;DHT22;11062;51.164;16.924;2022-07-25T04:58:27;35.10;40.60
21801;DHT22;11062;51.164;16.924;2022-07-25T05:01:14;35.00;40.80
21801;DHT22;11062;51.164;16.924;2022-07-25T05:03:40;35.00;40.90
21801;DHT22;11062;51.164;16.924;2022-07-25T05:06:06;35.10;40.90
21801;DHT22;11062;51.164;16.924;2022-07-25T05:08:33;35.10;40.80
21801;DHT22;11062;51.164;16.924;2022-07-25T05:10:59;35.30;40.80
21801;DHT22;11062;51.164;16.924;2022-07-25T05:13:25;35.40;40.10
21801;DHT22;11062;51.164;16.924;2022-07-25T05:15:56;35.40;40.50
21801;DHT22;11062;51.164;16.924;2022-07-25T05:18:26;35.40;40.70
21801;DHT22;11062;51.164;16.924;2022-07-25T05:20:52;35.40;40.70
21801;DHT22;11062;51.164;16.924;2022-07-25T05:23:19;35.40;40.50
21801;DHT22;11062;51.164;16.924;2022-07-25T05:25:45;35.50;40.40
21801;DHT22;11062;51.164;16.924;2022-07-25T05:28:11;35.60;40.40
21801;DHT22;11062;51.164;16.924;2022-07-25T05:30:39;35.80;40.30
21801;DHT22;11062;51.164;16.924;2022-07-25T05:33:07;36.00;40.30
21801;DHT22;11062;51.164;16.924;2022-07-25T05:35:36;36.20;40.00
21801;DHT22;11062;51.164;16.924;2022-07-25T05:38:04;36.20;39.70
21801;DHT22;11062;51.164;16.924;2022-07-25T05:40:30;36.30;39.50
21801;DHT22;11062;51.164;16.924;2022-07-25T05:42:57;36.40;39.30
21801;DHT22;11062;51.164;16.924;2022-07-25T05:45:26;36.40;39.20
21801;DHT22;11062;51.164;16.924;2022-07-25T05:47:52;36.70;39.20
21801;DHT22;11062;51.164;16.924;2022-07-25T05:50:21;36.60;39.00
21801;DHT22;11062;51.164;16.924;2022-07-25T05:52:47;36.80;38.70
21801;DHT22;11062;51.164;16.924;2022-07-25T05:55:13;36.90;38.50
21801;DHT22;11062;51.164;16.924;2022-07-25T05:57:40;36.90;38.30
21801;DHT22;11062;51.164;16.924;2022-07-25T06:00:07;37.00;38.10
21801;DHT22;11062;51.164;16.924;2022-07-25T06:02:34;36.90;38.10
21801;DHT22;11062;51.164;16.924;2022-07-25T06:05:00;37.00;38.30
21801;DHT22;11062;51.164;16.924;2022-07-25T06:07:26;37.10;37.60
21801;DHT22;11062;51.164;16.924;2022-07-25T06:09:52;37.20;37.00
21801;DHT22;11062;51.164;16.924;2022-07-25T06:12:19;37.30;37.00
21801;DHT22;11062;51.164;16.924;2022-07-25T06:15:38;37.10;36.90
21801;DHT22;11062;51.164;16.924;2022-07-25T06:18:04;37.20;36.30
21801;DHT22;11062;51.164;16.924;2022-07-25T06:20:33;37.00;36.00
21801;DHT22;11062;51.164;16.924;2022-07-25T06:23:03;37.10;36.10
21801;DHT22;11062;51.164;16.924;2022-07-25T06:25:29;36.90;36.50
21801;DHT22;11062;51.164;16.924;2022-07-25T06:27:56;36.90;36.20
21801;DHT22;11062;51.164;16.924;2022-07-25T06:30:26;37.00;36.40
21801;DHT22;11062;51.164;16.924;2022-07-25T06:32:52;37.20;36.30
21801;DHT22;11062;51.164;16.924;2022-07-25T06:35:19;37.40;36.10
21801;DHT22;11062;51.164;16.924;2022-07-25T06:37:45;37.60;35.80
21801;DHT22;11062;51.164;16.924;2022-07-25T06:40:11;37.70;35.70
21801;DHT22;11062;51.164;16.924;2022-07-25T06:42:45;37.90;35.90
21801;DHT22;11062;51.164;16.924;2022-07-25T06:45:13;37.90;35.40
21801;DHT22;11062;51.164;16.924;2022-07-25T06:47:41;38.10;35.90
21801;DHT22;11062;51.164;16.924;2022-07-25T06:50:14;38.20;35.50
21801;DHT22;11062;51.164;16.924;2022-07-25T06:52:41;38.10;34.90
21801;DHT22;11062;51.164;16.924;2022-07-25T06:55:09;38.20;35.40
21801;DHT22;11062;51.164;16.924;2022-07-25T06:57:38;38.30;35.30
21801;DHT22;11062;51.164;16.924;2022-07-25T07:00:07;38.50;35.00
21801;DHT22;11062;51.164;16.924;2022-07-25T07:02:51;38.50;34.30
21801;DHT22;11062;51.164;16.924;2022-07-25T07:05:32;38.60;34.50
21801;DHT22;11062;51.164;16.924;2022-07-25T07:08:02;38.60;34.00
21801;DHT22;11062;51.164;16.924;2022-07-25T07:10:29;38.70;34.90
21801;DHT22;11062;51.164;16.924;2022-07-25T07:13:10;38.70;34.20
21801;DHT22;11062;51.164;16.924;2022-07-25T07:15:46;38.80;33.60
21801;DHT22;11062;51.164;16.924;2022-07-25T07:18:18;38.90;33.80
21801;DHT22;11062;51.164;16.924;2022-07-25T07:20:49;38.90;33.40
21801;DHT22;11062;51.164;16.924;2022-07-25T07:23:21;38.80;33.00
21801;DHT22;11062;51.164;16.924;2022-07-25T07:25:48;38.50;33.00
21801;DHT22;11062;51.164;16.924;2022-07-25T07:28:17;38.70;33.50
21801;DHT22;11062;51.164;16.924;2022-07-25T07:30:51;39.00;33.40
21801;DHT22;11062;51.164;16.924;2022-07-25T07:33:17;39.10;33.40
21801;DHT22;11062;51.164;16.924;2022-07-25T07:35:44;39.30;33.70
21801;DHT22;11062;51.164;16.924;2022-07-25T07:38:17;39.30;32.80
21801;DHT22;11062;51.164;16.924;2022-07-25T07:40:44;38.70;32.00
21801;DHT22;11062;51.164;16.924;2022-07-25T07:43:13;38.50;32.00
21801;DHT22;11062;51.164;16.924;2022-07-25T07:45:44;38.50;33.10
21801;DHT22;11062;51.164;16.924;2022-07-25T07:48:10;38.30;32.70
21801;DHT22;11062;51.164;16.924;2022-07-25T07:50:37;38.80;33.20
21801;DHT22;11062;51.164;16.924;2022-07-25T07:53:03;38.90;33.60
21801;DHT22;11062;51.164;16.924;2022-07-25T07:55:50;39.20;32.50
21801;DHT22;11062;51.164;16.924;2022-07-25T07:58:24;39.40;32.40
21801;DHT22;11062;51.164;16.924;2022-07-25T08:00:53;39.70;32.10
21801;DHT22;11062;51.164;16.924;2022-07-25T08:03:22;39.70;31.30
21801;DHT22;11062;51.164;16.924;2022-07-25T08:05:51;39.30;30.80
21801;DHT22;11062;51.164;16.924;2022-07-25T08:08:17;39.40;31.80
21801;DHT22;11062;51.164;16.924;2022-07-25T08:10:48;39.60;31.20
21801;DHT22;11062;51.164;16.924;2022-07-25T08:13:22;39.40;30.90
21801;DHT22;11062;51.164;16.924;2022-07-25T08:16:08;39.60;31.30
21801;DHT22;11062;51.164;16.924;2022-07-25T08:18:39;39.50;31.00
21801;DHT22;11062;51.164;16.924;2022-07-25T08:21:05;39.70;30.90
21801;DHT22;11062;51.164;16.924;2022-07-25T08:23:35;39.60;31.20
21801;DHT22;11062;51.164;16.924;2022-07-25T08:26:03;39.90;30.90
21801;DHT22;11062;51.164;16.924;2022-07-25T08:28:30;39.30;30.90
21801;DHT22;11062;51.164;16.924;2022-07-25T08:30:57;39.30;31.70
21801;DHT22;11062;51.164;16.924;2022-07-25T08:33:26;39.50;31.50
21801;DHT22;11062;51.164;16.924;2022-07-25T08:35:56;39.60;31.10
21801;DHT22;11062;51.164;16.924;2022-07-25T08:38:26;39.60;30.60
21801;DHT22;11062;51.164;16.924;2022-07-25T08:40:56;39.60;31.20
21801;DHT22;11062;51.164;16.924;2022-07-25T08:43:22;39.90;30.50
21801;DHT22;11062;51.164;16.924;2022-07-25T08:45:53;39.30;30.00
21801;DHT22;11062;51.164;16.924;2022-07-25T08:48:22;39.70;30.60
21801;DHT22;11062;51.164;16.924;2022-07-25T08:50:49;39.80;30.10
21801;DHT22;11062;51.164;16.924;2022-07-25T08:53:36;39.50;29.50
21801;DHT22;11062;51.164;16.924;2022-07-25T08:56:09;39.50;30.00
21801;DHT22;11062;51.164;16.924;2022-07-25T08:58:36;39.20;29.80
21801;DHT22;11062;51.164;16.924;2022-07-25T09:01:02;39.30;29.70
21801;DHT22;11062;51.164;16.924;2022-07-25T09:03:32;39.10;30.00
21801;DHT22;11062;51.164;16.924;2022-07-25T09:05:58;39.00;29.90
21801;DHT22;11062;51.164;16.924;2022-07-25T09:08:25;38.90;30.10
21801;DHT22;11062;51.164;16.924;2022-07-25T09:10:52;38.80;30.00
21801;DHT22;11062;51.164;16.924;2022-07-25T09:13:20;39.00;30.00
21801;DHT22;11062;51.164;16.924;2022-07-25T09:15:51;39.20;29.60
21801;DHT22;11062;51.164;16.924;2022-07-25T09:18:25;38.80;29.80
21801;DHT22;11062;51.164;16.924;2022-07-25T09:20:54;38.60;30.00
21801;DHT22;11062;51.164;16.924;2022-07-25T09:23:37;38.60;30.20
21801;DHT22;11062;51.164;16.924;2022-07-25T09:26:11;38.90;30.20
21801;DHT22;11062;51.164;16.924;2022-07-25T09:28:49;39.00;30.10
21801;DHT22;11062;51.164;16.924;2022-07-25T09:31:19;39.50;30.10
21801;DHT22;11062;51.164;16.924;2022-07-25T09:33:51;39.60;30.30
21801;DHT22;11062;51.164;16.924;2022-07-25T09:36:18;39.60;29.70
21801;DHT22;11062;51.164;16.924;2022-07-25T09:38:55;39.30;29.60
21801;DHT22;11062;51.164;16.924;2022-07-25T09:41:35;39.50;29.80
21801;DHT22;11062;51.164;16.924;2022-07-25T09:44:02;39.40;30.00
21801;DHT22;11062;51.164;16.924;2022-07-25T09:46:30;39.50;30.00
21801;DHT22;11062;51.164;16.924;2022-07-25T09:48:57;39.50;30.20
21801;DHT22;11062;51.164;16.924;2022-07-25T09:51:28;39.90;30.10
21801;DHT22;11062;51.164;16.924;2022-07-25T09:53:57;40.00;30.70
21801;DHT22;11062;51.164;16.924;2022-07-25T09:56:24;40.00;30.50
21801;DHT22;11062;51.164;16.924;2022-07-25T09:58:53;39.90;30.40
21801;DHT22;11062;51.164;16.924;2022-07-25T10:01:31;40.10;31.20
21801;DHT22;11062;51.164;16.924;2022-07-25T10:06:46;40.00;30.10
21801;DHT22;11062;51.164;16.924;2022-07-25T10:09:21;40.10;30.00
21801;DHT22;11062;51.164;16.924;2022-07-25T10:12:04;40.50;29.90
21801;DHT22;11062;51.164;16.924;2022-07-25T10:14:32;41.00;29.40
21801;DHT22;11062;51.164;16.924;2022-07-25T10:16:58;41.50;29.20
21801;DHT22;11062;51.164;16.924;2022-07-25T10:22:05;41.70;28.60
21801;DHT22;11062;51.164;16.924;2022-07-25T10:24:35;41.60;28.40
21801;DHT22;11062;51.164;16.924;2022-07-25T10:27:20;42.00;28.20
21801;DHT22;11062;51.164;16.924;2022-07-25T10:29:52;42.50;28.80
21801;DHT22;11062;51.164;16.924;2022-07-25T10:32:19;42.90;28.20
21801;DHT22;11062;51.164;16.924;2022-07-25T10:34:53;43.20;28.40
21801;DHT22;11062;51.164;16.924;2022-07-25T10:37:26;43.30;28.30
21801;DHT22;11062;51.164;16.924;2022-07-25T10:39:53;43.40;27.80
21801;DHT22;11062;51.164;16.924;2022-07-25T10:42:22;42.90;26.80
21801;DHT22;11062;51.164;16.924;2022-07-25T10:44:52;42.90;27.40
21801;DHT22;11062;51.164;16.924;2022-07-25T10:47:25;43.20;27.30
21801;DHT22;11062;51.164;16.924;2022-07-25T10:49:57;43.30;27.80
21801;DHT22;11062;51.164;16.924;2022-07-25T10:52:28;43.60;27.90
21801;DHT22;11062;51.164;16.924;2022-07-25T10:55:00;44.00;27.50
21801;DHT22;11062;51.164;16.924;2022-07-25T10:57:29;44.20;27.00
21801;DHT22;11062;51.164;16.924;2022-07-25T11:00:21;43.90;26.90
21801;DHT22;11062;51.164;16.924;2022-07-25T11:03:00;43.90;26.50
21801;DHT22;11062;51.164;16.924;2022-07-25T11:05:42;44.10;26.80
21801;DHT22;11062;51.164;16.924;2022-07-25T11:08:08;44.20;26.70
21801;DHT22;11062;51.164;16.924;2022-07-25T11:10:37;44.30;26.90
21801;DHT22;11062;51.164;16.924;2022-07-25T11:13:03;44.60;26.90
21801;DHT22;11062;51.164;16.924;2022-07-25T11:15:31;44.80;27.00
21801;DHT22;11062;51.164;16.924;2022-07-25T11:17:57;44.90;26.60
21801;DHT22;11062;51.164;16.924;2022-07-25T11:20:23;45.20;26.50
21801;DHT22;11062;51.164;16.924;2022-07-25T11:22:54;45.20;26.50
21801;DHT22;11062;51.164;16.924;2022-07-25T11:25:22;45.50;26.50
21801;DHT22;11062;51.164;16.924;2022-07-25T11:27:56;45.60;26.50
21801;DHT22;11062;51.164;16.924;2022-07-25T11:30:23;45.90;26.00
21801;DHT22;11062;51.164;16.924;2022-07-25T11:32:55;46.20;25.80
21801;DHT22;11062;51.164;16.924;2022-07-25T11:35:31;46.40;25.60
21801;DHT22;11062;51.164;16.924;2022-07-25T11:38:01;46.30;25.40
21801;DHT22;11062;51.164;16.924;2022-07-25T11:40:28;46.60;25.50
21801;DHT22;11062;51.164;16.924;2022-07-25T11:42:58;46.70;25.50
21801;DHT22;11062;51.164;16.924;2022-07-25T11:45:29;46.70;26.20
21801;DHT22;11062;51.164;16.924;2022-07-25T11:48:04;46.70;25.70
21801;DHT22;11062;51.164;16.924;2022-07-25T11:53:23;46.70;25.70
21801;DHT22;11062;51.164;16.924;2022-07-25T11:55:50;46.80;25.20
21801;DHT22;11062;51.164;16.924;2022-07-25T11:58:16;46.70;25.80
21801;DHT22;11062;51.164;16.924;2022-07-25T12:00:47;47.20;26.20
21801;DHT22;11062;51.164;16.924;2022-07-25T12:03:16;47.80;25.90
21801;DHT22;11062;51.164;16.924;2022-07-25T12:05:43;48.30;24.90
21801;DHT22;11062;51.164;16.924;2022-07-25T12:08:14;49.00;24.00
21801;DHT22;11062;51.164;16.924;2022-07-25T12:10:42;49.30;23.70
21801;DHT22;11062;51.164;16.924;2022-07-25T12:13:09;49.70;23.80
21801;DHT22;11062;51.164;16.924;2022-07-25T12:15:52;50.20;23.70
21801;DHT22;11062;51.164;16.924;2022-07-25T12:18:34;50.50;23.70
21801;DHT22;11062;51.164;16.924;2022-07-25T12:21:02;50.30;23.80
21801;DHT22;11062;51.164;16.924;2022-07-25T12:23:37;50.30;23.60
21801;DHT22;11062;51.164;16.924;2022-07-25T12:26:25;50.50;23.70
21801;DHT22;11062;51.164;16.924;2022-07-25T12:28:51;50.30;23.50
21801;DHT22;11062;51.164;16.924;2022-07-25T12:37:41;51.00;23.20
21801;DHT22;11062;51.164;16.924;2022-07-25T12:40:08;51.40;23.10
21801;DHT22;11062;51.164;16.924;2022-07-25T12:42:34;51.20;22.70
21801;DHT22;11062;51.164;16.924;2022-07-25T12:48:24;51.60;23.40
21801;DHT22;11062;51.164;16.924;2022-07-25T12:50:50;51.90;23.50
21801;DHT22;11062;51.164;16.924;2022-07-25T12:53:23;52.20;23.10
21801;DHT22;11062;51.164;16.924;2022-07-25T12:55:52;52.70;23.40
21801;DHT22;11062;51.164;16.924;2022-07-25T12:58:18;52.80;23.30
21801;DHT22;11062;51.164;16.924;2022-07-25T13:00:46;53.00;22.40
21801;DHT22;11062;51.164;16.924;2022-07-25T13:03:14;53.20;22.40
21801;DHT22;11062;51.164;16.924;2022-07-25T13:05:41;53.30;22.50
21801;DHT22;11062;51.164;16.924;2022-07-25T13:08:24;53.10;22.60
21801;DHT22;11062;51.164;16.924;2022-07-25T13:10:53;52.90;23.10
21801;DHT22;11062;51.164;16.924;2022-07-25T13:13:19;53.00;22.60
21801;DHT22;11062;51.164;16.924;2022-07-25T13:15:45;52.70;22.80
21801;DHT22;11062;51.164;16.924;2022-07-25T13:18:11;52.50;23.10
21801;DHT22;11062;51.164;16.924;2022-07-25T13:20:37;52.60;23.00
21801;DHT22;11062;51.164;16.924;2022-07-25T13:23:03;52.70;22.80
21801;DHT22;11062;51.164;16.924;2022-07-25T13:25:35;52.50;22.80
21801;DHT22;11062;51.164;16.924;2022-07-25T13:28:02;52.50;23.60
21801;DHT22;11062;51.164;16.924;2022-07-25T13:30:29;52.80;23.10
21801;DHT22;11062;51.164;16.924;2022-07-25T13:33:19;52.90;23.00
21801;DHT22;11062;51.164;16.924;2022-07-25T13:35:48;53.00;23.00
21801;DHT22;11062;51.164;16.924;2022-07-25T13:38:14;52.90;23.00
21801;DHT22;11062;51.164;16.924;2022-07-25T13:40:52;53.20;23.00
21801;DHT22;11062;51.164;16.924;2022-07-25T13:43:31;52.80;22.70
21801;DHT22;11062;51.164;16.924;2022-07-25T13:45:57;52.80;22.80
21801;DHT22;11062;51.164;16.924;2022-07-25T13:48:23;53.00;22.90
21801;DHT22;11062;51.164;16.924;2022-07-25T13:51:14;53.10;22.70
21801;DHT22;11062;51.164;16.924;2022-07-25T13:53:43;53.30;23.20
21801;DHT22;11062;51.164;16.924;2022-07-25T13:56:14;53.30;22.90
21801;DHT22;11062;51.164;16.924;2022-07-25T13:58:43;53.20;22.40
21801;DHT22;11062;51.164;16.924;2022-07-25T14:01:10;53.30;22.60
21801;DHT22;11062;51.164;16.924;2022-07-25T14:03:37;53.50;22.60
21801;DHT22;11062;51.164;16.924;2022-07-25T14:06:04;52.90;22.60
21801;DHT22;11062;51.164;16.924;2022-07-25T14:08:31;53.00;23.10
21801;DHT22;11062;51.164;16.924;2022-07-25T14:11:02;52.80;23.30
21801;DHT22;11062;51.164;16.924;2022-07-25T14:13:31;53.00;23.30
21801;DHT22;11062;51.164;16.924;2022-07-25T14:16:05;53.30;23.20
21801;DHT22;11062;51.164;16.924;2022-07-25T14:18:32;53.30;22.60
21801;DHT22;11062;51.164;16.924;2022-07-25T14:20:59;53.50;22.70
21801;DHT22;11062;51.164;16.924;2022-07-25T14:23:29;53.10;22.40
21801;DHT22;11062;51.164;16.924;2022-07-25T14:25:57;52.90;23.00
21801;DHT22;11062;51.164;16.924;2022-07-25T14:28:24;53.00;22.80
21801;DHT22;11062;51.164;16.924;2022-07-25T14:31:02;52.70;23.00
21801;DHT22;11062;51.164;16.924;2022-07-25T14:33:36;53.20;22.90
21801;DHT22;11062;51.164;16.924;2022-07-25T14:36:12;53.40;22.60
21801;DHT22;11062;51.164;16.924;2022-07-25T14:38:39;53.30;22.80
21801;DHT22;11062;51.164;16.924;2022-07-25T14:41:23;53.30;22.70
21801;DHT22;11062;51.164;16.924;2022-07-25T14:44:15;52.80;22.10
21801;DHT22;11062;51.164;16.924;2022-07-25T14:47:28;52.70;22.40
21801;DHT22;11062;51.164;16.924;2022-07-25T14:52:26;52.80;22.40
21801;DHT22;11062;51.164;16.924;2022-07-25T14:54:52;52.50;22.40
21801;DHT22;11062;51.164;16.924;2022-07-25T14:57:21;52.40;22.50
21801;DHT22;11062;51.164;16.924;2022-07-25T14:59:49;52.50;22.80
21801;DHT22;11062;51.164;16.924;2022-07-25T15:02:22;52.40;22.80
21801;DHT22;11062;51.164;16.924;2022-07-25T15:04:54;51.70;22.80
21801;DHT22;11062;51.164;16.924;2022-07-25T15:07:36;51.80;23.20
21801;DHT22;11062;51.164;16.924;2022-07-25T15:10:06;52.20;23.10
21801;DHT22;11062;51.164;16.924;2022-07-25T15:12:35;52.10;23.30
21801;DHT22;11062;51.164;16.924;2022-07-25T15:15:03;52.30;23.70
21801;DHT22;11062;51.164;16.924;2022-07-25T15:17:34;52.60;23.40
21801;DHT22;11062;51.164;16.924;2022-07-25T15:20:05;52.70;23.00
21801;DHT22;11062;51.164;16.924;2022-07-25T15:22:39;53.10;23.00
21801;DHT22;11062;51.164;16.924;2022-07-25T15:25:17;53.10;22.60
21801;DHT22;11062;51.164;16.924;2022-07-25T15:30:25;53.70;22.90
21801;DHT22;11062;51.164;16.924;2022-07-25T15:32:52;54.00;22.50
21801;DHT22;11062;51.164;16.924;2022-07-25T15:35:21;53.90;22.70
21801;DHT22;11062;51.164;16.924;2022-07-25T15:37:49;54.10;22.60
21801;DHT22;11062;51.164;16.924;2022-07-25T15:40:20;54.40;23.10
21801;DHT22;11062;51.164;16.924;2022-07-25T15:42:48;54.50;22.50
21801;DHT22;11062;51.164;16.924;2022-07-25T15:45:15;54.50;22.20
21801;DHT22;11062;51.164;16.924;2022-07-25T15:47:49;54.30;22.10
21801;DHT22;11062;51.164;16.924;2022-07-25T15:50:23;54.10;22.10
21801;DHT22;11062;51.164;16.924;2022-07-25T15:52:51;53.70;22.10